createdAt,value
2022-08-24T00:02:08.072Z,3.90
2022-08-24T00:04:41.094Z,3.55
2022-08-24T00:07:23.725Z,3.35
2022-08-24T00:09:57.640Z,4.30
2022-08-24T00:12:25.791Z,3.88
2022-08-24T00:14:55.364Z,3.78
2022-08-24T00:17:23.436Z,3.40
2022-08-24T00:19:51.338Z,3.80
2022-08-24T00:22:20.918Z,3.60
2022-08-24T00:24:51.247Z,3.38
2022-08-24T00:27:20.376Z,3.53
2022-08-24T00:29:48.188Z,3.75
2022-08-24T00:32:16.153Z,3.97
2022-08-24T00:34:58.444Z,4.03
2022-08-24T00:37:29.817Z,3.70
2022-08-24T00:39:58.072Z,3.75
2022-08-24T00:42:30.731Z,3.78
2022-08-24T00:45:00.928Z,3.80
2022-08-24T00:47:35.225Z,3.63
2022-08-24T00:50:08.142Z,3.80
2022-08-24T00:52:47.436Z,3.70
2022-08-24T00:55:23.339Z,4.00
2022-08-24T00:57:56.099Z,3.38
2022-08-24T01:00:27.339Z,3.25
2022-08-24T01:02:59.452Z,4.20
2022-08-24T01:05:27.412Z,3.80
2022-08-24T01:08:01.269Z,3.60
2022-08-24T01:10:35.897Z,3.95
2022-08-24T01:13:11.549Z,3.60
2022-08-24T01:15:48.386Z,3.97
2022-08-24T01:18:38.313Z,3.70
2022-08-24T01:21:12.828Z,4.03
2022-08-24T01:23:46.969Z,4.20
2022-08-24T01:26:21.990Z,4.10
2022-08-24T01:28:56.423Z,3.88
2022-08-24T01:31:26.672Z,4.15
2022-08-24T01:33:59.570Z,4.28
2022-08-24T01:36:38.018Z,4.10
2022-08-24T01:39:12.432Z,4.28
2022-08-24T01:41:41.690Z,4.38
2022-08-24T01:44:11.764Z,4.43
2022-08-24T01:46:41.013Z,4.35
2022-08-24T01:49:11.761Z,4.43
2022-08-24T01:51:44.872Z,4.63
2022-08-24T01:54:19.615Z,4.30
2022-08-24T01:56:54.792Z,4.10
2022-08-24T01:59:23.704Z,4.28
2022-08-24T02:01:56.352Z,4.43
2022-08-24T02:04:27.269Z,4.05
2022-08-24T02:07:00.666Z,4.35
2022-08-24T02:09:32.983Z,4.80
2022-08-24T02:12:05.403Z,4.47
2022-08-24T02:14:36.610Z,4.63
2022-08-24T02:17:05.399Z,4.28
2022-08-24T02:19:36.590Z,4.60
2022-08-24T02:22:05.999Z,4.65
2022-08-24T02:24:35.192Z,4.70
2022-08-24T02:27:09.498Z,4.28
2022-08-24T02:29:40.465Z,4.28
2022-08-24T02:32:08.636Z,4.72
2022-08-24T02:34:36.804Z,4.13
2022-08-24T02:37:04.947Z,3.80
2022-08-24T02:39:33.102Z,4.60
2022-08-24T02:42:03.652Z,4.72
2022-08-24T02:44:41.232Z,4.85
2022-08-24T02:47:10.928Z,4.53
2022-08-24T02:49:44.725Z,4.30
2022-08-24T02:52:12.870Z,4.50
2022-08-24T02:54:41.943Z,4.47
2022-08-24T02:57:11.101Z,4.28
2022-08-24T02:59:41.988Z,4.40
2022-08-24T03:02:13.069Z,4.25
2022-08-24T03:04:41.321Z,4.28
2022-08-24T03:07:11.331Z,3.95
2022-08-24T03:09:40.172Z,4.55
2022-08-24T03:12:13.537Z,4.07
2022-08-24T03:14:41.583Z,4.07
2022-08-24T03:17:12.661Z,4.07
2022-08-24T03:19:40.517Z,4.60
2022-08-24T03:22:14.573Z,4.32
2022-08-24T03:24:42.382Z,4.05
2022-08-24T03:27:15.325Z,4.75
2022-08-24T03:29:46.163Z,4.32
2022-08-24T03:32:15.389Z,4.15
2022-08-24T03:34:43.291Z,4.28
2022-08-24T03:37:12.684Z,4.68
2022-08-24T03:39:43.132Z,4.10
2022-08-24T03:42:10.939Z,4.78
2022-08-24T03:44:41.301Z,4.47
2022-08-24T03:47:13.522Z,4.53
2022-08-24T03:52:11.145Z,4.40
2022-08-24T03:54:38.996Z,4.10
2022-08-24T03:57:08.820Z,4.18
2022-08-24T03:59:39.383Z,4.40
2022-08-24T04:02:15.824Z,4.45
2022-08-24T04:04:44.342Z,4.35
2022-08-24T04:07:21.625Z,4.25
2022-08-24T04:09:50.501Z,4.38
2022-08-24T04:12:25.704Z,4.40
2022-08-24T04:14:56.795Z,4.25
2022-08-24T04:17:25.981Z,4.20
2022-08-24T04:20:02.249Z,3.70
2022-08-24T04:22:36.273Z,3.95
2022-08-24T04:25:09.019Z,4.50
2022-08-24T04:27:41.302Z,4.10
2022-08-24T04:30:14.087Z,4.35
2022-08-24T04:32:45.876Z,4.43
2022-08-24T04:35:13.862Z,4.53
2022-08-24T04:37:42.860Z,4.47
2022-08-24T04:40:19.474Z,4.13
2022-08-24T04:42:47.495Z,4.55
2022-08-24T04:45:21.262Z,4.43
2022-08-24T04:47:53.398Z,3.97
2022-08-24T04:50:24.746Z,4.13
2022-08-24T04:52:55.325Z,3.90
2022-08-24T04:55:24.514Z,4.03
2022-08-24T04:57:57.044Z,4.30
2022-08-24T05:00:26.097Z,3.97
2022-08-24T05:02:55.281Z,3.58
2022-08-24T05:05:25.555Z,4.65
2022-08-24T05:08:00.163Z,4.20
2022-08-24T05:10:33.761Z,4.32
2022-08-24T05:13:04.782Z,3.95
2022-08-24T05:15:33.136Z,4.20
2022-08-24T05:18:09.318Z,3.85
2022-08-24T05:20:40.512Z,4.18
2022-08-24T05:23:08.778Z,3.85
2022-08-24T05:25:37.195Z,4.13
2022-08-24T05:28:09.241Z,4.38
2022-08-24T05:30:41.997Z,4.10
2022-08-24T05:33:15.925Z,4.47
2022-08-24T05:35:47.500Z,4.32
2022-08-24T05:38:16.914Z,4.65
2022-08-24T05:40:46.085Z,4.15
2022-08-24T05:43:14.564Z,4.15
2022-08-24T05:45:48.704Z,5.30
2022-08-24T05:48:17.900Z,5.03
2022-08-24T05:50:48.926Z,4.85
2022-08-24T05:53:18.761Z,4.57
2022-08-24T05:55:51.071Z,4.28
2022-08-24T06:00:59.868Z,4.18
2022-08-24T06:03:34.088Z,4.60
2022-08-24T06:06:04.080Z,3.78
2022-08-24T06:08:36.056Z,4.38
2022-08-24T06:11:07.717Z,4.47
2022-08-24T06:13:38.759Z,5.18
2022-08-24T06:16:27.935Z,5.20
2022-08-24T06:19:00.300Z,4.57
2022-08-24T06:24:00.107Z,4.60
2022-08-24T06:26:50.045Z,3.83
2022-08-24T06:29:18.746Z,4.05
2022-08-24T06:31:54.584Z,3.95
2022-08-24T06:34:26.607Z,4.38
2022-08-24T06:36:54.507Z,4.70
2022-08-24T06:39:22.300Z,4.30
2022-08-24T06:41:50.821Z,4.97
2022-08-24T06:44:24.814Z,4.90
2022-08-24T06:46:52.758Z,5.18
2022-08-24T06:49:21.338Z,4.63
2022-08-24T06:51:57.712Z,4.85
2022-08-24T06:54:25.909Z,5.30
2022-08-24T06:56:58.495Z,5.20
2022-08-24T06:59:28.985Z,4.82
2022-08-24T07:01:57.614Z,5.20
2022-08-24T07:04:31.072Z,4.43
2022-08-24T07:07:00.620Z,5.30
2022-08-24T07:09:30.501Z,4.47
2022-08-24T07:12:07.875Z,4.63
2022-08-24T07:14:35.787Z,4.97
2022-08-24T07:17:04.750Z,5.20
2022-08-24T07:19:32.543Z,5.28
2022-08-24T07:22:01.732Z,5.20
2022-08-24T07:24:32.260Z,5.57
2022-08-24T07:27:03.384Z,4.88
2022-08-24T07:29:47.365Z,5.40
2022-08-24T07:32:19.579Z,4.95
2022-08-24T07:34:47.554Z,4.43
2022-08-24T07:37:16.705Z,4.93
2022-08-24T07:39:49.564Z,4.10
2022-08-24T07:42:28.181Z,4.18
2022-08-24T07:44:59.449Z,3.90
2022-08-24T07:47:38.552Z,4.53
2022-08-24T07:50:11.074Z,4.55
2022-08-24T07:52:43.034Z,4.18
2022-08-24T07:55:12.549Z,4.57
2022-08-24T07:57:46.164Z,4.60
2022-08-24T08:00:20.340Z,5.57
2022-08-24T08:02:50.768Z,4.75
2022-08-24T08:05:21.616Z,5.07
2022-08-24T08:07:55.620Z,4.70
2022-08-24T08:10:24.228Z,4.28
2022-08-24T08:12:52.651Z,4.38
2022-08-24T08:15:23.089Z,4.30
2022-08-24T08:17:55.805Z,4.35
2022-08-24T08:20:24.410Z,4.05
2022-08-24T08:23:11.258Z,3.92
2022-08-24T08:25:39.121Z,4.57
2022-08-24T08:28:18.614Z,3.90
2022-08-24T08:30:53.819Z,3.25
2022-08-24T08:33:23.175Z,3.58
2022-08-24T08:35:57.121Z,3.17
2022-08-24T08:38:31.826Z,3.55
2022-08-24T08:41:13.371Z,3.45
2022-08-24T08:43:48.224Z,3.13
2022-08-24T08:46:28.250Z,3.40
2022-08-24T08:49:24.497Z,3.28
2022-08-24T08:52:35.073Z,3.00
2022-08-24T08:55:24.934Z,3.00
2022-08-24T08:58:11.363Z,3.10
2022-08-24T09:00:52.605Z,3.30
2022-08-24T09:03:38.319Z,3.30
2022-08-24T09:06:26.434Z,3.30
2022-08-24T09:09:17.077Z,3.35
2022-08-24T09:11:56.077Z,3.45
2022-08-24T09:15:00.865Z,3.40
2022-08-24T09:17:42.971Z,3.45
2022-08-24T09:20:20.532Z,3.45
2022-08-24T09:22:49.435Z,3.75
2022-08-24T09:25:26.420Z,3.55
2022-08-24T09:28:14.552Z,3.13
2022-08-24T09:30:59.767Z,3.17
2022-08-24T09:33:36.431Z,3.63
2022-08-24T09:36:14.339Z,3.30
2022-08-24T09:38:59.939Z,3.50
2022-08-24T09:42:06.892Z,3.40
2022-08-24T09:45:20.025Z,3.70
2022-08-24T09:48:09.525Z,3.25
2022-08-24T09:51:02.811Z,3.45
2022-08-24T09:54:05.044Z,3.45
2022-08-24T09:56:45.041Z,3.85
2022-08-24T09:59:50.109Z,3.65
2022-08-24T10:02:52.985Z,3.63
2022-08-24T10:05:36.385Z,3.85
2022-08-24T10:08:16.667Z,3.95
2022-08-24T10:10:52.831Z,3.80
2022-08-24T10:13:29.208Z,3.72
2022-08-24T10:16:10.137Z,3.90
2022-08-24T10:18:53.420Z,3.70
2022-08-24T10:21:34.898Z,4.32
2022-08-24T10:24:32.339Z,4.20
2022-08-24T10:27:36.585Z,4.40
2022-08-24T10:30:43.557Z,4.40
2022-08-24T10:33:19.967Z,3.88
2022-08-24T10:36:08.447Z,4.18
2022-08-24T10:39:05.188Z,4.13
2022-08-24T10:42:06.636Z,3.80
2022-08-24T10:44:49.804Z,4.20
2022-08-24T10:47:22.599Z,4.10
2022-08-24T10:50:23.849Z,3.95
2022-08-24T10:53:24.314Z,4.03
2022-08-24T10:56:03.225Z,3.65
2022-08-24T10:58:48.987Z,4.13
2022-08-24T11:01:31.077Z,3.55
2022-08-24T11:06:31.758Z,3.80
2022-08-24T11:09:05.688Z,3.75
2022-08-24T11:11:36.365Z,3.53
2022-08-24T11:14:10.817Z,3.42
2022-08-24T11:16:41.365Z,3.65
2022-08-24T11:19:13.185Z,3.45
2022-08-24T11:21:48.977Z,3.30
2022-08-24T11:24:32.702Z,3.50
2022-08-24T11:27:06.085Z,3.25
2022-08-24T11:29:57.467Z,3.50
2022-08-24T11:32:38.374Z,2.97
2022-08-24T11:35:10.989Z,3.40
2022-08-24T11:37:40.190Z,3.30
2022-08-24T11:40:10.976Z,3.22
2022-08-24T11:42:54.425Z,3.55
2022-08-24T11:45:30.651Z,3.08
2022-08-24T11:48:16.449Z,2.85
2022-08-24T11:50:52.614Z,2.67
2022-08-24T11:53:33.686Z,2.60
2022-08-24T11:56:16.352Z,2.65
2022-08-24T11:58:54.947Z,2.97
2022-08-24T12:01:27.340Z,2.92
2022-08-24T12:04:10.079Z,3.03
2022-08-24T12:06:55.660Z,2.80
2022-08-24T12:09:37.111Z,2.15
2022-08-24T12:12:13.495Z,2.63
2022-08-24T12:14:47.669Z,2.90
2022-08-24T12:17:24.187Z,2.80
2022-08-24T12:19:56.710Z,2.80
2022-08-24T12:22:25.937Z,2.60
2022-08-24T12:24:56.731Z,2.55
2022-08-24T12:27:28.841Z,2.88
2022-08-24T12:30:05.307Z,2.47
2022-08-24T12:32:40.713Z,2.90
2022-08-24T12:35:16.584Z,2.42
2022-08-24T12:37:52.068Z,2.60
2022-08-24T12:40:27.383Z,2.40
2022-08-24T12:43:03.356Z,2.50
2022-08-24T12:45:31.291Z,2.60
2022-08-24T12:48:07.572Z,2.30
2022-08-24T12:50:45.486Z,2.08
2022-08-24T12:53:50.951Z,2.38
2022-08-24T12:56:45.672Z,2.67
2022-08-24T12:59:21.639Z,2.60
2022-08-24T13:01:59.880Z,2.47
2022-08-24T13:04:44.883Z,2.42
2022-08-24T13:07:28.959Z,2.50
2022-08-24T13:10:09.042Z,2.30
2022-08-24T13:13:11.504Z,2.30
2022-08-24T13:16:04.357Z,2.40
2022-08-24T13:19:07.748Z,2.58
2022-08-24T13:21:42.141Z,2.60
2022-08-24T13:24:50.269Z,2.40
2022-08-24T13:27:50.548Z,2.17
2022-08-24T13:30:38.561Z,2.22
2022-08-24T13:33:13.092Z,2.50
2022-08-24T13:36:03.001Z,2.72
2022-08-24T13:38:57.777Z,2.42
2022-08-24T13:41:55.408Z,2.05
2022-08-24T13:44:43.893Z,2.40
2022-08-24T13:47:18.786Z,2.55
2022-08-24T13:50:03.071Z,2.40
2022-08-24T13:52:43.518Z,2.25
2022-08-24T13:55:28.952Z,2.25
2022-08-24T13:58:12.610Z,2.13
2022-08-24T14:00:46.697Z,2.10
2022-08-24T14:03:46.241Z,2.00
2022-08-24T14:06:30.377Z,1.95
2022-08-24T14:09:16.029Z,2.03
2022-08-24T14:12:00.222Z,2.13
2022-08-24T14:14:52.971Z,2.10
2022-08-24T14:17:47.801Z,2.17
2022-08-24T14:20:43.309Z,1.80
2022-08-24T14:23:30.905Z,1.70
2022-08-24T14:26:40.134Z,1.80
2022-08-24T14:29:55.251Z,1.70
2022-08-24T14:32:32.314Z,1.67
2022-08-24T14:35:26.253Z,1.70
2022-08-24T14:38:12.432Z,1.55
2022-08-24T14:41:03.815Z,1.90
2022-08-24T14:43:46.769Z,1.33
2022-08-24T14:46:24.247Z,1.70
2022-08-24T14:49:06.701Z,1.58
2022-08-24T14:51:54.416Z,1.60
2022-08-24T14:54:40.933Z,1.90
2022-08-24T14:57:28.458Z,1.50
2022-08-24T15:00:08.226Z,1.40
2022-08-24T15:03:15.869Z,1.58
2022-08-24T15:06:09.526Z,1.50
2022-08-24T15:08:44.055Z,1.52
2022-08-24T15:11:14.337Z,1.58
2022-08-24T15:13:52.277Z,1.67
2022-08-24T15:16:26.429Z,2.15
2022-08-24T15:19:04.448Z,2.03
2022-08-24T15:21:44.559Z,1.77
2022-08-24T15:24:19.083Z,1.83
2022-08-24T15:26:58.260Z,1.70
2022-08-24T15:29:30.961Z,1.50
2022-08-24T15:32:02.513Z,1.40
2022-08-24T15:34:40.261Z,1.60
2022-08-24T15:37:09.003Z,1.60
2022-08-24T15:39:37.452Z,2.35
2022-08-24T15:42:16.473Z,2.20
2022-08-24T15:44:48.159Z,2.00
2022-08-24T15:47:25.440Z,2.22
2022-08-24T15:49:57.196Z,1.60
2022-08-24T15:52:46.306Z,1.80
2022-08-24T15:55:28.205Z,1.50
2022-08-24T15:57:56.797Z,1.50
2022-08-24T16:00:55.382Z,1.77
2022-08-24T16:03:25.499Z,1.52
2022-08-24T16:05:55.353Z,1.58
2022-08-24T16:08:24.606Z,1.85
2022-08-24T16:10:54.622Z,1.75
2022-08-24T16:13:28.212Z,1.75
2022-08-24T16:16:02.947Z,1.95
2022-08-24T16:18:46.772Z,1.60
2022-08-24T16:21:17.816Z,1.40
2022-08-24T16:24:01.240Z,1.70
2022-08-24T16:26:32.046Z,1.60
2022-08-24T16:29:01.237Z,1.73
2022-08-24T16:31:49.818Z,1.75
2022-08-24T16:34:21.932Z,1.70
2022-08-24T16:36:50.253Z,1.80
2022-08-24T16:39:18.016Z,1.88
2022-08-24T16:41:45.964Z,1.80
2022-08-24T16:44:13.999Z,1.90
2022-08-24T16:46:41.916Z,1.75
2022-08-24T16:49:17.136Z,1.90
2022-08-24T16:51:45.371Z,1.70
2022-08-24T16:54:13.827Z,1.90
2022-08-24T16:56:42.727Z,1.83
2022-08-24T16:59:18.607Z,1.80
2022-08-24T17:01:50.148Z,1.77
2022-08-24T17:06:48.981Z,1.63
2022-08-24T17:09:19.148Z,1.90
2022-08-24T17:11:47.565Z,1.80
2022-08-24T17:14:16.526Z,1.75
2022-08-24T17:16:44.857Z,1.90
2022-08-24T17:19:15.005Z,1.60
2022-08-24T17:21:46.194Z,2.03
2022-08-24T17:24:14.695Z,1.50
2022-08-24T17:26:45.773Z,1.60
2022-08-24T17:29:19.668Z,1.80
2022-08-24T17:31:49.755Z,1.80
2022-08-24T17:34:21.518Z,1.95
2022-08-24T17:36:54.175Z,1.95
2022-08-24T17:39:23.895Z,1.67
2022-08-24T17:41:51.913Z,1.70
2022-08-24T17:44:24.788Z,1.70
2022-08-24T17:46:54.138Z,1.90
2022-08-24T17:49:22.541Z,2.45
2022-08-24T17:51:52.082Z,2.05
2022-08-24T17:54:20.301Z,2.38
2022-08-24T17:56:50.697Z,1.80
2022-08-24T17:59:26.683Z,1.95
2022-08-24T18:01:56.277Z,1.60
2022-08-24T18:04:27.536Z,1.90
2022-08-24T18:06:58.023Z,1.90
2022-08-24T18:09:29.761Z,2.00
2022-08-24T18:12:01.519Z,1.70
2022-08-24T18:14:30.955Z,1.90
2022-08-24T18:17:03.723Z,2.00
2022-08-24T18:19:33.045Z,2.30
2022-08-24T18:22:03.876Z,2.20
2022-08-24T18:24:32.647Z,2.13
2022-08-24T18:27:10.160Z,2.17
2022-08-24T18:29:41.473Z,2.60
2022-08-24T18:32:12.121Z,2.80
2022-08-24T18:34:40.725Z,2.75
2022-08-24T18:37:09.943Z,2.45
2022-08-24T18:39:37.865Z,2.22
2022-08-24T18:42:08.897Z,2.53
2022-08-24T18:44:38.601Z,2.20
2022-08-24T18:47:09.966Z,2.45
2022-08-24T18:49:37.779Z,2.10
2022-08-24T18:52:10.301Z,2.28
2022-08-24T18:54:42.462Z,2.47
2022-08-24T18:57:10.396Z,2.08
2022-08-24T18:59:40.652Z,1.90
2022-08-24T19:02:30.041Z,2.13
2022-08-24T19:04:59.650Z,2.30
2022-08-24T19:07:31.443Z,2.15
2022-08-24T19:09:59.467Z,2.15
2022-08-24T19:12:28.393Z,2.13
2022-08-24T19:14:59.241Z,2.22
2022-08-24T19:17:27.505Z,2.20
2022-08-24T19:19:55.340Z,1.90
2022-08-24T19:22:23.411Z,2.17
2022-08-24T19:24:52.960Z,2.05
2022-08-24T19:27:21.774Z,2.30
2022-08-24T19:29:56.752Z,2.00
2022-08-24T19:32:29.147Z,2.50
2022-08-24T19:35:01.049Z,2.10
2022-08-24T19:37:28.883Z,2.30
2022-08-24T19:39:58.379Z,2.25
2022-08-24T19:42:28.316Z,2.10
2022-08-24T19:45:16.464Z,2.40
2022-08-24T19:47:44.308Z,2.25
2022-08-24T19:50:14.827Z,2.47
2022-08-24T19:52:49.215Z,2.30
2022-08-24T19:55:18.600Z,2.38
2022-08-24T19:57:53.524Z,2.17
2022-08-24T20:00:28.388Z,2.63
2022-08-24T20:02:58.361Z,2.63
2022-08-24T20:05:28.529Z,2.67
2022-08-24T20:08:00.223Z,2.40
2022-08-24T20:10:29.657Z,3.20
2022-08-24T20:12:57.557Z,2.92
2022-08-24T20:15:32.143Z,2.45
2022-08-24T20:18:00.152Z,2.30
2022-08-24T20:20:31.426Z,2.65
2022-08-24T20:23:06.015Z,2.50
2022-08-24T20:25:36.603Z,2.72
2022-08-24T20:28:28.387Z,3.20
2022-08-24T20:30:54.488Z,3.00
2022-08-24T20:33:23.718Z,3.53
2022-08-24T20:35:51.876Z,3.75
2022-08-24T20:38:21.661Z,3.25
2022-08-24T20:40:51.692Z,3.50
2022-08-24T20:43:20.725Z,3.53
2022-08-24T20:45:55.485Z,3.60
2022-08-24T20:48:30.380Z,3.60
2022-08-24T20:50:58.635Z,3.78
2022-08-24T20:53:26.691Z,5.10
2022-08-24T20:55:57.566Z,4.93
2022-08-24T20:58:26.236Z,5.90
2022-08-24T21:00:54.110Z,7.05
2022-08-24T21:03:22.036Z,7.05
2022-08-24T21:05:52.328Z,7.45
2022-08-24T21:08:20.488Z,6.80
2022-08-24T21:10:50.782Z,7.15
2022-08-24T21:13:20.020Z,6.53
2022-08-24T21:15:49.045Z,6.20
2022-08-24T21:18:16.879Z,5.68
2022-08-24T21:21:03.994Z,5.90
2022-08-24T21:23:32.743Z,5.95
2022-08-24T21:26:03.503Z,5.32
2022-08-24T21:28:34.310Z,5.03
2022-08-24T21:31:05.882Z,4.40
2022-08-24T21:36:21.055Z,3.72
2022-08-24T21:38:52.415Z,3.42
2022-08-24T21:41:21.488Z,4.20
2022-08-24T21:43:50.650Z,4.15
2022-08-24T21:46:20.553Z,3.70
2022-08-24T21:48:48.397Z,3.95
2022-08-24T21:51:16.181Z,3.55
2022-08-24T21:53:44.079Z,3.50
2022-08-24T21:56:14.623Z,4.15
2022-08-24T21:58:49.092Z,3.90
2022-08-24T22:01:20.332Z,4.00
2022-08-24T22:03:50.575Z,4.07
2022-08-24T22:06:18.431Z,4.13
2022-08-24T22:08:46.302Z,3.92
2022-08-24T22:11:19.133Z,4.40
2022-08-24T22:13:50.790Z,3.92
2022-08-24T22:16:20.793Z,3.92
2022-08-24T22:18:50.272Z,4.00
2022-08-24T22:21:21.477Z,3.90
2022-08-24T22:23:56.763Z,4.25
2022-08-24T22:26:25.763Z,4.50
2022-08-24T22:28:57.485Z,4.25
2022-08-24T22:31:38.557Z,3.70
2022-08-24T22:34:12.575Z,4.57
2022-08-24T22:36:47.414Z,4.30
2022-08-24T22:39:22.156Z,4.10
2022-08-24T22:41:51.799Z,4.78
2022-08-24T22:44:22.287Z,4.85
2022-08-24T22:46:56.629Z,4.80
2022-08-24T22:49:26.987Z,4.80
2022-08-24T22:52:00.860Z,4.47
2022-08-24T22:54:31.662Z,4.72
2022-08-24T22:56:59.987Z,4.35
2022-08-24T22:59:29.529Z,4.85
2022-08-24T23:02:02.374Z,4.35
2022-08-24T23:04:32.924Z,4.85
2022-08-24T23:07:04.317Z,4.90
2022-08-24T23:09:44.358Z,4.85
2022-08-24T23:12:15.327Z,4.88
2022-08-24T23:14:45.305Z,4.22
2022-08-24T23:17:14.511Z,4.03
2022-08-24T23:20:04.324Z,5.00
2022-08-24T23:22:35.318Z,4.78
2022-08-24T23:25:03.354Z,5.22
2022-08-24T23:27:37.701Z,5.13
2022-08-24T23:30:15.488Z,4.72
2022-08-24T23:32:45.150Z,4.32
2022-08-24T23:35:13.299Z,5.50
2022-08-24T23:37:43.948Z,4.97
2022-08-24T23:40:17.312Z,5.20
2022-08-24T23:42:47.891Z,4.57
2022-08-24T23:45:18.753Z,5.05
2022-08-24T23:47:57.785Z,5.20
2022-08-24T23:50:28.569Z,5.22
2022-08-24T23:53:04.471Z,5.40
2022-08-24T23:55:34.688Z,4.88
2022-08-24T23:58:04.798Z,5.22
